Time,TemperatureF,DewpointF,PressureIn,WindDirection,WindDirectionDegrees,WindSpeedMPH,WindSpeedGustMPH,Humidity,HourlyPrecipIn,Conditions,Clouds,dailyrainin,SoftwareType,DateUTC
2013-07-11 00:02:00,54.0,52.3,29.97,North,5,4.0,10.0,94,0.00,,,0.00,meteohub,2013-07-11 07:02:00,
2013-07-11 00:07:00,54.0,52.3,29.97,NNW,346,3.0,10.0,94,0.00,,,0.00,meteohub,2013-07-11 07:07:00,
2013-07-11 00:12:00,54.0,52.3,29.97,North,354,2.0,10.0,94,0.00,,,0.00,meteohub,2013-07-11 07:12:00,
2013-07-11 00:17:00,54.0,52.5,29.97,North,6,3.0,10.0,95,0.00,,,0.00,meteohub,2013-07-11 07:17:00,
2013-07-11 00:22:00,54.0,52.3,29.96,NNE,16,4.0,10.0,94,0.00,,,0.00,meteohub,2013-07-11 07:22:00,
2013-07-11 00:27:00,54.0,52.5,29.96,NNE,15,6.0,12.0,95,0.00,,,0.00,meteohub,2013-07-11 07:27:00,
2013-07-11 00:32:00,54.0,52.3,29.96,NNE,12,7.0,12.0,94,0.00,,,0.00,meteohub,2013-07-11 07:32:00,
2013-07-11 00:37:00,54.0,52.3,29.96,North,8,2.0,10.0,94,0.00,,,0.00,meteohub,2013-07-11 07:37:00,
2013-07-11 00:42:00,54.0,52.3,29.96,NNW,342,2.0,8.0,94,0.00,,,0.00,meteohub,2013-07-11 07:42:00,
2013-07-11 00:47:00,54.1,52.5,29.96,North,0,7.0,8.0,94,0.00,,,0.00,meteohub,2013-07-11 07:47:00,
2013-07-11 00:52:00,54.1,52.5,29.96,NNE,20,1.0,10.0,94,0.00,,,0.00,meteohub,2013-07-11 07:52:00,
2013-07-11 00:57:00,54.1,52.5,29.96,NNE,18,3.0,10.0,94,0.00,,,0.00,meteohub,2013-07-11 07:57:00,
2013-07-11 01:02:00,54.1,52.5,29.96,North,359,3.0,10.0,94,0.00,,,0.00,meteohub,2013-07-11 08:02:00,
2013-07-11 01:07:00,54.1,52.5,29.96,North,358,1.0,11.0,94,0.00,,,0.00,meteohub,2013-07-11 08:07:00,
2013-07-11 01:12:00,54.1,52.5,29.96,NE,50,2.0,11.0,94,0.00,,,0.00,meteohub,2013-07-11 08:12:00,
2013-07-11 01:17:00,54.0,52.3,29.96,North,6,5.0,11.0,94,0.00,,,0.00,meteohub,2013-07-11 08:17:00,
2013-07-11 01:22:00,54.0,52.3,29.96,NNW,333,2.0,11.0,94,0.00,,,0.00,meteohub,2013-07-11 08:22:00,
2013-07-11 01:27:00,53.8,52.2,29.96,NW,323,2.0,11.0,94,0.00,,,0.00,meteohub,2013-07-11 08:27:00,
2013-07-11 01:32:00,53.8,52.2,29.96,NNW,345,7.0,9.0,94,0.00,,,0.00,meteohub,2013-07-11 08:32:00,
2013-07-11 01:37:00,53.6,52.0,29.96,NE,48,0.0,10.0,94,0.00,,,0.00,meteohub,2013-07-11 08:37:00,
2013-07-11 01:42:00,53.6,52.0,29.96,North,4,4.0,10.0,94,0.00,,,0.00,meteohub,2013-07-11 08:42:00,
2013-07-11 01:47:00,53.4,51.8,29.96,East,83,0.0,10.0,94,0.00,,,0.00,meteohub,2013-07-11 08:47:00,
2013-07-11 01:52:00,53.2,51.6,29.96,North,0,2.0,9.0,94,0.00,,,0.00,meteohub,2013-07-11 08:52:00,
2013-07-11 01:57:00,53.2,51.6,29.96,NNE,19,2.0,9.0,94,0.00,,,0.00,meteohub,2013-07-11 08:57:00,
2013-07-11 02:02:00,53.1,51.4,29.96,NNW,338,3.0,8.0,94,0.00,,,0.00,meteohub,2013-07-11 09:02:00,
2013-07-11 02:07:00,53.1,51.4,29.95,NNE,32,2.0,11.0,94,0.00,,,0.00,meteohub,2013-07-11 09:07:00,
2013-07-11 02:12:00,53.1,51.4,29.95,North,7,1.0,11.0,94,0.00,,,0.00,meteohub,2013-07-11 09:12:00,
2013-07-11 02:17:00,53.1,51.4,29.95,NNE,15,3.0,11.0,94,0.00,,,0.00,meteohub,2013-07-11 09:17:00,
2013-07-11 02:22:00,53.1,51.4,29.95,North,350,2.0,7.0,94,0.00,,,0.00,meteohub,2013-07-11 09:22:00,
2013-07-11 02:27:00,53.1,51.4,29.95,NNW,342,0.0,7.0,94,0.00,,,0.00,meteohub,2013-07-11 09:27:00,
2013-07-11 02:32:00,53.1,51.4,29.95,North,5,5.0,7.0,94,0.00,,,0.00,meteohub,2013-07-11 09:32:00,
2013-07-11 02:37:00,53.1,51.4,29.95,NW,316,1.0,10.0,94,0.00,,,0.00,meteohub,2013-07-11 09:37:00,
2013-07-11 02:42:00,53.1,51.4,29.95,NNW,335,3.0,10.0,94,0.00,,,0.00,meteohub,2013-07-11 09:42:00,
2013-07-11 02:47:00,53.1,51.4,29.95,WNW,300,1.0,7.0,94,0.00,,,0.00,meteohub,2013-07-11 09:47:00,
2013-07-11 02:52:00,53.1,51.4,29.95,North,8,1.0,7.0,94,0.00,,,0.00,meteohub,2013-07-11 09:52:00,
2013-07-11 02:57:00,53.1,51.4,29.95,NNE,23,2.0,7.0,94,0.00,,,0.00,meteohub,2013-07-11 09:57:00,
2013-07-11 03:02:00,53.2,51.8,29.95,NNW,328,0.0,6.0,95,0.00,,,0.00,meteohub,2013-07-11 10:02:00,
2013-07-11 03:07:00,53.2,51.6,29.95,NNE,27,2.0,4.0,94,0.00,,,0.00,meteohub,2013-07-11 10:07:00,
2013-07-11 03:12:00,52.9,51.3,29.95,NE,47,5.0,5.0,94,0.00,,,0.00,meteohub,2013-07-11 10:12:00,
2013-07-11 03:17:00,52.5,50.9,29.95,NNW,345,5.0,9.0,94,0.00,,,0.00,meteohub,2013-07-11 10:17:00,
2013-07-11 03:22:00,52.5,50.9,29.95,North,358,2.0,10.0,94,0.00,,,0.00,meteohub,2013-07-11 10:22:00,
2013-07-11 03:27:00,52.7,51.1,29.95,NNE,30,2.0,10.0,94,0.00,,,0.00,meteohub,2013-07-11 10:27:00,
2013-07-11 03:32:00,52.7,51.1,29.94,NNW,345,1.0,7.0,94,0.00,,,0.00,meteohub,2013-07-11 10:32:00,
2013-07-11 03:37:00,52.9,51.4,29.94,NNW,342,0.0,6.0,95,0.00,,,0.00,meteohub,2013-07-11 10:37:00,
2013-07-11 03:42:00,52.9,51.3,29.94,NW,316,2.0,6.0,94,0.00,,,0.00,meteohub,2013-07-11 10:42:00,
2013-07-11 03:47:00,52.7,51.1,29.94,NNE,22,2.0,8.0,94,0.00,,,0.00,meteohub,2013-07-11 10:47:00,
2013-07-11 03:52:00,52.7,51.1,29.94,NNW,338,3.0,8.0,94,0.00,,,0.00,meteohub,2013-07-11 10:52:00,
2013-07-11 03:57:00,52.5,50.9,29.94,NNE,12,0.0,8.0,94,0.00,,,0.00,meteohub,2013-07-11 10:57:00,
2013-07-11 04:02:00,52.5,50.9,29.94,NNW,328,2.0,7.0,94,0.00,,,0.00,meteohub,2013-07-11 11:02:00,
2013-07-11 04:07:00,52.5,50.9,29.94,North,356,3.0,9.0,94,0.00,,,0.00,meteohub,2013-07-11 11:07:00,
2013-07-11 04:12:00,52.5,50.9,29.94,NNE,22,1.0,9.0,94,0.00,,,0.00,meteohub,2013-07-11 11:12:00,
2013-07-11 04:17:00,52.5,50.9,29.94,NNW,340,2.0,9.0,94,0.00,,,0.00,meteohub,2013-07-11 11:17:00,
2013-07-11 04:22:00,52.5,50.9,29.94,NNW,342,1.0,6.0,94,0.00,,,0.00,meteohub,2013-07-11 11:22:00,
2013-07-11 04:27:00,52.5,50.9,29.94,WNW,298,2.0,5.0,94,0.00,,,0.00,meteohub,2013-07-11 11:27:00,
2013-07-11 04:32:00,52.7,51.3,29.94,NE,39,0.0,5.0,95,0.00,,,0.00,meteohub,2013-07-11 11:32:00,
2013-07-11 04:37:00,52.7,51.1,29.94,NNW,347,1.0,5.0,94,0.00,,,0.00,meteohub,2013-07-11 11:37:00,
2013-07-11 04:42:00,52.7,51.3,29.94,North,356,4.0,5.0,95,0.00,,,0.00,meteohub,2013-07-11 11:42:00,
2013-07-11 04:47:00,52.5,50.9,29.94,North,352,3.0,5.0,94,0.00,,,0.00,meteohub,2013-07-11 11:47:00,
2013-07-11 04:52:00,52.5,51.1,29.94,North,4,2.0,5.0,95,0.00,,,0.00,meteohub,2013-07-11 11:52:00,
2013-07-11 04:57:00,52.3,50.7,29.94,North,11,2.0,5.0,94,0.00,,,0.00,meteohub,2013-07-11 11:57:00,
2013-07-11 05:02:00,52.3,50.7,29.94,NNE,30,1.0,7.0,94,0.00,,,0.00,meteohub,2013-07-11 12:02:00,
2013-07-11 05:07:00,52.3,50.7,29.94,NNW,338,3.0,7.0,94,0.00,,,0.00,meteohub,2013-07-11 12:07:00,
2013-07-11 05:12:00,52.3,50.7,29.94,NW,318,2.0,7.0,94,0.00,,,0.00,meteohub,2013-07-11 12:12:00,
2013-07-11 05:17:00,52.3,50.9,29.94,NW,314,0.0,7.0,95,0.00,,,0.00,meteohub,2013-07-11 12:17:00,
2013-07-11 05:22:00,52.3,50.9,29.94,ESE,121,1.0,7.0,95,0.00,,,0.00,meteohub,2013-07-11 12:22:00,
2013-07-11 05:27:00,52.3,50.7,29.95,WSW,250,1.0,5.0,94,0.00,,,0.00,meteohub,2013-07-11 12:27:00,
2013-07-11 05:32:00,52.5,50.9,29.95,SW,218,2.0,4.0,94,0.00,,,0.00,meteohub,2013-07-11 12:32:00,
2013-07-11 05:37:00,52.5,50.9,29.95,NW,319,1.0,4.0,94,0.00,,,0.00,meteohub,2013-07-11 12:37:00,
2013-07-11 05:42:00,52.5,50.9,29.96,WSW,253,0.0,4.0,94,0.00,,,0.00,meteohub,2013-07-11 12:42:00,
2013-07-11 05:47:00,52.5,50.9,29.96,WNW,294,0.0,4.0,94,0.00,,,0.00,meteohub,2013-07-11 12:47:00,
2013-07-11 05:52:00,52.5,50.9,29.96,SW,222,0.0,5.0,94,0.00,,,0.00,meteohub,2013-07-11 12:52:00,
2013-07-11 05:57:00,52.5,50.9,29.96,NNE,23,0.0,5.0,94,0.00,,,0.00,meteohub,2013-07-11 12:57:00,
2013-07-11 06:02:00,52.7,51.1,29.96,NNW,334,1.0,5.0,94,0.00,,,0.00,meteohub,2013-07-11 13:02:00,
2013-07-11 06:07:00,52.9,51.3,29.96,SE,136,1.0,4.0,94,0.00,,,0.00,meteohub,2013-07-11 13:07:00,
2013-07-11 06:13:00,52.9,51.3,29.96,North,358,0.0,3.0,94,0.00,,,0.00,meteohub,2013-07-11 13:13:00,
2013-07-11 06:18:00,53.1,51.4,29.96,NW,326,0.0,2.0,94,0.00,,,0.00,meteohub,2013-07-11 13:18:00,
2013-07-11 06:24:00,53.1,51.4,29.96,NNE,15,1.0,2.0,94,0.00,,,0.00,meteohub,2013-07-11 13:24:00,
2013-07-11 06:29:00,53.1,51.4,29.96,NNW,330,2.0,3.0,94,0.00,,,0.00,meteohub,2013-07-11 13:29:00,
2013-07-11 06:34:00,53.2,51.6,29.96,North,354,1.0,4.0,94,0.00,,,0.00,meteohub,2013-07-11 13:34:00,
2013-07-11 06:39:00,53.2,51.6,29.96,North,351,0.0,4.0,94,0.00,,,0.00,meteohub,2013-07-11 13:39:00,
2013-07-11 06:44:00,53.2,51.6,29.96,NNW,333,1.0,4.0,94,0.00,,,0.00,meteohub,2013-07-11 13:44:00,
2013-07-11 06:50:00,53.2,51.6,29.96,NNE,19,0.0,2.0,94,0.00,,,0.00,meteohub,2013-07-11 13:50:00,
2013-07-11 06:55:00,53.4,51.8,29.96,NNE,19,4.0,4.0,94,0.00,,,0.00,meteohub,2013-07-11 13:55:00,
2013-07-11 07:00:00,53.4,51.4,29.96,North,358,1.0,5.0,93,0.00,,,0.00,meteohub,2013-07-11 14:00:00,
2013-07-11 07:06:00,53.4,51.4,29.96,North,358,3.0,5.0,93,0.00,,,0.00,meteohub,2013-07-11 14:06:00,
2013-07-11 07:11:00,53.4,51.4,29.96,WNW,283,1.0,5.0,93,0.00,,,0.00,meteohub,2013-07-11 14:11:00,
2013-07-11 07:17:00,53.4,51.4,29.96,WNW,295,0.0,5.0,93,0.00,,,0.00,meteohub,2013-07-11 14:17:00,
2013-07-11 07:22:00,53.4,51.4,29.96,North,1,0.0,5.0,93,0.00,,,0.00,meteohub,2013-07-11 14:22:00,
2013-07-11 07:27:00,53.4,51.4,29.96,NNW,330,2.0,5.0,93,0.00,,,0.00,meteohub,2013-07-11 14:27:00,
2013-07-11 07:32:00,53.6,52.0,29.96,NNE,26,3.0,5.0,94,0.00,,,0.00,meteohub,2013-07-11 14:32:00,
2013-07-11 07:37:00,53.6,52.0,29.96,South,169,2.0,9.0,94,0.00,,,0.00,meteohub,2013-07-11 14:37:00,
2013-07-11 07:42:00,53.6,52.0,29.96,North,359,0.0,9.0,94,0.00,,,0.00,meteohub,2013-07-11 14:42:00,
2013-07-11 07:47:00,53.6,52.0,29.97,North,0,0.0,9.0,94,0.00,,,0.00,meteohub,2013-07-11 14:47:00,
2013-07-11 07:52:00,53.8,52.2,29.96,NNE,15,2.0,5.0,94,0.00,,,0.00,meteohub,2013-07-11 14:52:00,
2013-07-11 07:57:00,53.8,52.2,29.97,NNW,348,1.0,4.0,94,0.00,,,0.00,meteohub,2013-07-11 14:57:00,
2013-07-11 08:02:00,53.8,51.8,29.96,NW,309,2.0,5.0,93,0.00,,,0.00,meteohub,2013-07-11 15:02:00,
2013-07-11 08:07:00,53.8,52.2,29.97,NNW,342,1.0,8.0,94,0.00,,,0.00,meteohub,2013-07-11 15:07:00,
2013-07-11 08:12:00,53.8,51.8,29.97,NNW,343,4.0,8.0,93,0.00,,,0.00,meteohub,2013-07-11 15:12:00,
2013-07-11 08:17:00,53.8,51.8,29.97,West,262,0.0,11.0,93,0.00,,,0.00,meteohub,2013-07-11 15:17:00,
2013-07-11 08:22:00,53.8,51.8,29.97,NNE,18,6.0,11.0,93,0.00,,,0.00,meteohub,2013-07-11 15:22:00,
2013-07-11 08:27:00,54.0,52.0,29.97,North,6,1.0,11.0,93,0.00,,,0.00,meteohub,2013-07-11 15:27:00,
2013-07-11 08:32:00,54.1,52.2,29.96,NNW,342,2.0,9.0,93,0.00,,,0.00,meteohub,2013-07-11 15:32:00,
2013-07-11 08:38:00,54.1,52.2,29.96,NNW,346,4.0,8.0,93,0.00,,,0.00,meteohub,2013-07-11 15:38:00,
2013-07-11 08:43:00,54.3,52.3,29.96,NW,323,1.0,8.0,93,0.00,,,0.00,meteohub,2013-07-11 15:43:00,
2013-07-11 08:49:00,54.3,52.0,29.96,ENE,57,2.0,8.0,92,0.00,,,0.00,meteohub,2013-07-11 15:49:00,
2013-07-11 08:54:00,54.3,52.0,29.96,NNE,26,5.0,7.0,92,0.00,,,0.00,meteohub,2013-07-11 15:54:00,
2013-07-11 08:59:00,54.5,52.2,29.96,ENE,58,2.0,6.0,92,0.00,,,0.00,meteohub,2013-07-11 15:59:00,
2013-07-11 09:04:00,54.7,52.3,29.97,North,9,1.0,6.0,92,0.00,,,0.00,meteohub,2013-07-11 16:04:00,
2013-07-11 09:09:00,54.7,52.3,29.97,NNE,33,0.0,6.0,92,0.00,,,0.00,meteohub,2013-07-11 16:09:00,
2013-07-11 09:15:00,54.9,52.3,29.97,NNE,33,0.0,4.0,91,0.00,,,0.00,meteohub,2013-07-11 16:15:00,
2013-07-11 09:21:00,54.9,52.3,29.96,NNW,344,3.0,5.0,91,0.00,,,0.00,meteohub,2013-07-11 16:21:00,
2013-07-11 09:26:00,54.9,52.3,29.97,WNW,297,3.0,10.0,91,0.00,,,0.00,meteohub,2013-07-11 16:26:00,
2013-07-11 09:31:00,54.9,52.3,29.97,WNW,300,2.0,10.0,91,0.00,,,0.00,meteohub,2013-07-11 16:31:00,
2013-07-11 09:36:00,54.9,52.3,29.97,NNE,29,5.0,10.0,91,0.00,,,0.00,meteohub,2013-07-11 16:36:00,
2013-07-11 09:42:00,54.9,52.0,29.97,North,4,5.0,10.0,90,0.00,,,0.00,meteohub,2013-07-11 16:42:00,
2013-07-11 09:47:00,54.9,52.3,29.97,NNW,338,4.0,9.0,91,0.00,,,0.00,meteohub,2013-07-11 16:47:00,
2013-07-11 09:52:00,54.9,52.3,29.96,NE,46,0.0,7.0,91,0.00,,,0.00,meteohub,2013-07-11 16:52:00,
2013-07-11 09:57:00,55.0,52.5,29.96,North,1,4.0,9.0,91,0.00,,,0.00,meteohub,2013-07-11 16:57:00,
2013-07-11 10:02:00,55.0,52.2,29.96,NNE,33,4.0,9.0,90,0.00,,,0.00,meteohub,2013-07-11 17:02:00,
2013-07-11 10:07:00,55.0,52.2,29.96,East,91,2.0,11.0,90,0.00,,,0.00,meteohub,2013-07-11 17:07:00,
2013-07-11 10:12:00,55.0,52.2,29.96,North,358,2.0,11.0,90,0.00,,,0.00,meteohub,2013-07-11 17:12:00,
2013-07-11 10:18:00,55.2,52.3,29.96,NNE,12,0.0,11.0,90,0.00,,,0.00,meteohub,2013-07-11 17:18:00,
2013-07-11 10:23:00,55.6,52.7,29.96,North,356,4.0,10.0,90,0.00,,,0.00,meteohub,2013-07-11 17:23:00,
2013-07-11 10:29:00,55.8,52.5,29.96,SSW,198,1.0,10.0,89,0.00,,,0.00,meteohub,2013-07-11 17:29:00,
2013-07-11 10:34:00,55.9,52.5,29.96,NW,316,2.0,6.0,88,0.00,,,0.00,meteohub,2013-07-11 17:34:00,
2013-07-11 10:40:00,55.9,52.7,29.96,North,358,3.0,7.0,89,0.00,,,0.00,meteohub,2013-07-11 17:40:00,
2013-07-11 10:45:00,55.8,52.5,29.96,NNE,33,2.0,7.0,89,0.00,,,0.00,meteohub,2013-07-11 17:45:00,
2013-07-11 10:50:00,56.1,52.9,29.97,NNE,33,0.0,8.0,89,0.00,,,0.00,meteohub,2013-07-11 17:50:00,
2013-07-11 10:55:00,56.3,53.1,29.96,NNE,20,2.0,8.0,89,0.00,,,0.00,meteohub,2013-07-11 17:55:00,
2013-07-11 11:01:00,56.3,52.5,29.96,NNE,27,5.0,8.0,87,0.00,,,0.00,meteohub,2013-07-11 18:01:00,
2013-07-11 11:06:00,56.1,52.7,29.97,NW,323,2.0,10.0,88,0.00,,,0.00,meteohub,2013-07-11 18:06:00,
2013-07-11 11:12:00,56.5,52.9,29.96,NW,326,3.0,10.0,88,0.00,,,0.00,meteohub,2013-07-11 18:12:00,
2013-07-11 11:17:00,56.7,53.1,29.97,NNE,26,2.0,11.0,88,0.00,,,0.00,meteohub,2013-07-11 18:17:00,
2013-07-11 11:22:00,56.7,52.9,29.97,NW,323,3.0,11.0,87,0.00,,,0.00,meteohub,2013-07-11 18:22:00,
2013-07-11 11:27:00,56.1,52.7,29.97,NNW,333,7.0,12.0,88,0.00,,,0.00,meteohub,2013-07-11 18:27:00,
2013-07-11 11:32:00,55.9,52.5,29.97,West,273,0.0,13.0,88,0.00,,,0.00,meteohub,2013-07-11 18:32:00,
2013-07-11 11:37:00,56.1,52.7,29.97,NNE,26,5.0,15.0,88,0.00,,,0.00,meteohub,2013-07-11 18:37:00,
2013-07-11 11:42:00,56.8,53.1,29.97,NE,47,3.0,15.0,87,0.00,,,0.00,meteohub,2013-07-11 18:42:00,
2013-07-11 11:48:00,56.8,53.1,29.97,NW,321,4.0,15.0,87,0.00,,,0.00,meteohub,2013-07-11 18:48:00,
2013-07-11 11:53:00,56.8,53.1,29.97,NNE,21,2.0,11.0,87,0.00,,,0.00,meteohub,2013-07-11 18:53:00,
2013-07-11 11:59:00,57.0,53.2,29.97,NNW,341,4.0,11.0,87,0.00,,,0.00,meteohub,2013-07-11 18:59:00,
2013-07-11 12:05:00,57.2,52.7,29.97,North,359,11.0,11.0,85,0.00,,,0.00,meteohub,2013-07-11 19:05:00,
2013-07-11 12:10:00,57.2,52.7,29.97,SE,134,2.0,12.0,85,0.00,,,0.00,meteohub,2013-07-11 19:10:00,
2013-07-11 12:15:00,57.7,53.2,29.97,NE,49,1.0,12.0,85,0.00,,,0.00,meteohub,2013-07-11 19:15:00,
2013-07-11 12:21:00,58.1,52.9,29.96,NNE,15,6.0,7.0,83,0.00,,,0.00,meteohub,2013-07-11 19:21:00,
2013-07-11 12:26:00,57.9,53.1,29.97,North,359,6.0,11.0,84,0.00,,,0.00,meteohub,2013-07-11 19:26:00,
2013-07-11 12:31:00,57.9,53.1,29.96,North,352,3.0,16.0,84,0.00,,,0.00,meteohub,2013-07-11 19:31:00,
2013-07-11 12:37:00,58.6,53.4,29.97,NNW,328,3.0,16.0,83,0.00,,,0.00,meteohub,2013-07-11 19:37:00,
2013-07-11 12:42:00,58.6,53.2,29.96,WSW,238,2.0,10.0,82,0.00,,,0.00,meteohub,2013-07-11 19:42:00,
2013-07-11 12:47:00,58.6,53.2,29.96,NNW,338,6.0,7.0,82,0.00,,,0.00,meteohub,2013-07-11 19:47:00,
2013-07-11 12:52:00,58.6,53.2,29.96,SE,127,3.0,12.0,82,0.00,,,0.00,meteohub,2013-07-11 19:52:00,
2013-07-11 12:58:00,58.5,53.2,29.96,NW,307,3.0,14.0,83,0.00,,,0.00,meteohub,2013-07-11 19:58:00,
2013-07-11 13:03:00,58.5,53.2,29.97,NNW,329,7.0,14.0,83,0.00,,,0.00,meteohub,2013-07-11 20:03:00,
2013-07-11 13:09:00,58.3,53.1,29.97,NW,323,3.0,14.0,83,0.00,,,0.00,meteohub,2013-07-11 20:09:00,
2013-07-11 13:14:00,58.3,53.1,29.97,North,11,7.0,11.0,83,0.00,,,0.00,meteohub,2013-07-11 20:14:00,
2013-07-11 13:19:00,57.9,53.4,29.96,North,6,6.0,11.0,85,0.00,,,0.00,meteohub,2013-07-11 20:19:00,
2013-07-11 13:25:00,58.1,52.9,29.96,South,176,3.0,15.0,83,0.00,,,0.00,meteohub,2013-07-11 20:25:00,
2013-07-11 13:30:00,58.5,53.6,29.96,NNW,347,8.0,17.0,84,0.00,,,0.00,meteohub,2013-07-11 20:30:00,
2013-07-11 13:35:00,58.8,53.6,29.96,North,359,6.0,17.0,83,0.00,,,0.00,meteohub,2013-07-11 20:35:00,
2013-07-11 13:40:00,59.2,53.4,29.96,NW,319,6.0,13.0,81,0.00,,,0.00,meteohub,2013-07-11 20:40:00,
2013-07-11 13:46:00,58.6,53.2,29.96,North,352,5.0,19.0,82,0.00,,,0.00,meteohub,2013-07-11 20:46:00,
2013-07-11 13:51:00,59.0,53.6,29.96,East,96,2.0,19.0,82,0.00,,,0.00,meteohub,2013-07-11 20:51:00,
2013-07-11 13:56:00,59.0,53.2,29.96,North,4,10.0,19.0,81,0.00,,,0.00,meteohub,2013-07-11 20:56:00,
2013-07-11 14:01:00,59.0,53.2,29.96,NW,320,2.0,16.0,81,0.00,,,0.00,meteohub,2013-07-11 21:01:00,
2013-07-11 14:07:00,59.0,53.6,29.96,NNE,33,6.0,16.0,82,0.00,,,0.00,meteohub,2013-07-11 21:07:00,
2013-07-11 14:12:00,59.0,53.6,29.96,NNW,347,1.0,16.0,82,0.00,,,0.00,meteohub,2013-07-11 21:12:00,
2013-07-11 14:17:00,58.8,53.4,29.96,NE,34,3.0,15.0,82,0.00,,,0.00,meteohub,2013-07-11 21:17:00,
2013-07-11 14:22:00,58.8,53.4,29.96,NNW,345,7.0,15.0,82,0.00,,,0.00,meteohub,2013-07-11 21:22:00,
2013-07-11 14:28:00,59.2,53.6,29.95,West,278,1.0,19.0,82,0.00,,,0.00,meteohub,2013-07-11 21:28:00,
2013-07-11 14:33:00,59.0,53.6,29.95,NNW,344,7.0,19.0,82,0.00,,,0.00,meteohub,2013-07-11 21:33:00,
2013-07-11 14:38:00,58.6,53.4,29.95,NE,50,6.0,19.0,83,0.00,,,0.00,meteohub,2013-07-11 21:38:00,
2013-07-11 14:43:00,59.0,53.6,29.95,NNE,18,2.0,17.0,82,0.00,,,0.00,meteohub,2013-07-11 21:43:00,
2013-07-11 14:50:00,59.0,53.6,29.95,North,356,7.0,17.0,82,0.00,,,0.00,meteohub,2013-07-11 21:50:00,
2013-07-11 14:55:00,59.0,53.2,29.95,North,11,7.0,14.0,81,0.00,,,0.00,meteohub,2013-07-11 21:55:00,
2013-07-11 15:00:00,58.8,53.4,29.95,NNW,338,2.0,14.0,82,0.00,,,0.00,meteohub,2013-07-11 22:00:00,
2013-07-11 15:05:00,58.6,53.2,29.95,NNW,338,4.0,14.0,82,0.00,,,0.00,meteohub,2013-07-11 22:05:00,
2013-07-11 15:11:00,58.6,53.2,29.95,NNW,335,8.0,13.0,82,0.00,,,0.00,meteohub,2013-07-11 22:11:00,
2013-07-11 15:16:00,58.6,53.2,29.94,NNE,13,9.0,13.0,82,0.00,,,0.00,meteohub,2013-07-11 22:16:00,
2013-07-11 15:21:00,58.3,52.9,29.94,North,359,5.0,16.0,82,0.00,,,0.00,meteohub,2013-07-11 22:21:00,
2013-07-11 15:26:00,58.5,53.1,29.94,North,356,5.0,16.0,82,0.00,,,0.00,meteohub,2013-07-11 22:26:00,
2013-07-11 15:32:00,58.5,53.1,29.94,North,0,2.0,16.0,82,0.00,,,0.00,meteohub,2013-07-11 22:32:00,
2013-07-11 15:37:00,58.6,53.2,29.94,WNW,303,5.0,14.0,82,0.00,,,0.00,meteohub,2013-07-11 22:37:00,
2013-07-11 15:42:00,58.6,53.2,29.94,North,350,8.0,15.0,82,0.00,,,0.00,meteohub,2013-07-11 22:42:00,
2013-07-11 15:47:00,58.6,53.2,29.94,North,354,11.0,15.0,82,0.00,,,0.00,meteohub,2013-07-11 22:47:00,
2013-07-11 15:52:00,58.6,52.9,29.94,North,11,5.0,15.0,81,0.00,,,0.00,meteohub,2013-07-11 22:52:00,
2013-07-11 15:57:00,58.8,53.4,29.94,NNW,341,8.0,18.0,82,0.00,,,0.00,meteohub,2013-07-11 22:57:00,
2013-07-11 16:02:00,58.8,53.1,29.94,ESE,104,4.0,18.0,81,0.00,,,0.00,meteohub,2013-07-11 23:02:00,
2013-07-11 16:07:00,58.8,53.1,29.93,North,354,7.0,18.0,81,0.00,,,0.00,meteohub,2013-07-11 23:07:00,
2013-07-11 16:13:00,58.6,53.2,29.94,NW,322,6.0,17.0,82,0.00,,,0.00,meteohub,2013-07-11 23:13:00,
2013-07-11 16:19:00,58.3,52.9,29.93,NNE,27,5.0,13.0,82,0.00,,,0.00,meteohub,2013-07-11 23:19:00,
2013-07-11 16:24:00,58.5,53.2,29.93,NNE,29,4.0,16.0,83,0.00,,,0.00,meteohub,2013-07-11 23:24:00,
2013-07-11 16:29:00,58.5,53.1,29.93,WNW,297,5.0,16.0,82,0.00,,,0.00,meteohub,2013-07-11 23:29:00,
2013-07-11 16:35:00,58.3,52.9,29.93,NNE,15,4.0,16.0,82,0.00,,,0.00,meteohub,2013-07-11 23:35:00,
2013-07-11 16:40:00,58.3,52.9,29.93,North,353,4.0,14.0,82,0.00,,,0.00,meteohub,2013-07-11 23:40:00,
2013-07-11 16:46:00,57.9,52.7,29.93,NNE,16,5.0,14.0,83,0.00,,,0.00,meteohub,2013-07-11 23:46:00,
2013-07-11 16:51:00,57.9,53.1,29.93,NNE,19,6.0,13.0,84,0.00,,,0.00,meteohub,2013-07-11 23:51:00,
2013-07-11 16:57:00,57.7,52.9,29.93,NW,326,4.0,13.0,84,0.00,,,0.00,meteohub,2013-07-11 23:57:00,
2013-07-11 17:02:00,57.6,52.7,29.92,North,0,4.0,16.0,84,0.00,,,0.00,meteohub,2013-07-12 00:02:00,
2013-07-11 17:07:00,57.6,52.7,29.92,NNW,338,4.0,16.0,84,0.00,,,0.00,meteohub,2013-07-12 00:07:00,
2013-07-11 17:12:00,57.6,52.7,29.92,NNE,12,3.0,16.0,84,0.00,,,0.00,meteohub,2013-07-12 00:12:00,
2013-07-11 17:17:00,57.6,52.7,29.93,NNW,338,4.0,13.0,84,0.00,,,0.00,meteohub,2013-07-12 00:17:00,
2013-07-11 17:22:00,57.4,52.5,29.92,NNW,330,5.0,14.0,84,0.00,,,0.00,meteohub,2013-07-12 00:22:00,
2013-07-11 17:27:00,57.6,52.7,29.92,NNE,26,3.0,14.0,84,0.00,,,0.00,meteohub,2013-07-12 00:27:00,
2013-07-11 17:32:00,57.4,52.5,29.92,North,349,4.0,14.0,84,0.00,,,0.00,meteohub,2013-07-12 00:32:00,
2013-07-11 17:37:00,57.6,52.7,29.92,NNE,13,2.0,13.0,84,0.00,,,0.00,meteohub,2013-07-12 00:37:00,
2013-07-11 17:43:00,57.6,52.7,29.92,NNW,347,6.0,11.0,84,0.00,,,0.00,meteohub,2013-07-12 00:43:00,
2013-07-11 17:48:00,57.4,52.5,29.92,North,11,7.0,12.0,84,0.00,,,0.00,meteohub,2013-07-12 00:48:00,
2013-07-11 17:53:00,57.0,52.5,29.92,NNW,346,3.0,12.0,85,0.00,,,0.00,meteohub,2013-07-12 00:53:00,
2013-07-11 17:59:00,56.8,52.3,29.91,NNW,334,4.0,12.0,85,0.00,,,0.00,meteohub,2013-07-12 00:59:00,
2013-07-11 18:04:00,56.7,52.5,29.91,North,354,9.0,14.0,86,0.00,,,0.00,meteohub,2013-07-12 01:04:00,
2013-07-11 18:09:00,56.3,52.2,29.91,NNW,342,4.0,21.0,86,0.00,,,0.00,meteohub,2013-07-12 01:09:00,
2013-07-11 18:15:00,56.1,52.3,29.91,NW,309,4.0,21.0,87,0.00,,,0.00,meteohub,2013-07-12 01:15:00,
2013-07-11 18:20:00,56.1,52.3,29.92,North,5,9.0,21.0,87,0.00,,,0.00,meteohub,2013-07-12 01:20:00,
2013-07-11 18:25:00,55.9,52.2,29.92,NW,321,5.0,18.0,87,0.00,,,0.00,meteohub,2013-07-12 01:25:00,
2013-07-11 18:30:00,55.9,52.2,29.92,North,0,6.0,18.0,87,0.00,,,0.00,meteohub,2013-07-12 01:30:00,
2013-07-11 18:36:00,55.9,52.5,29.92,NNW,328,2.0,13.0,88,0.00,,,0.00,meteohub,2013-07-12 01:36:00,
2013-07-11 18:41:00,55.9,52.5,29.91,NW,312,6.0,14.0,88,0.00,,,0.00,meteohub,2013-07-12 01:41:00,
2013-07-11 18:46:00,55.9,52.5,29.91,North,0,11.0,16.0,88,0.00,,,0.00,meteohub,2013-07-12 01:46:00,
2013-07-11 18:52:00,55.8,52.3,29.91,NNE,22,7.0,16.0,88,0.00,,,0.00,meteohub,2013-07-12 01:52:00,
2013-07-11 18:57:00,55.8,52.3,29.91,NW,316,4.0,15.0,88,0.00,,,0.00,meteohub,2013-07-12 01:57:00,
2013-07-11 19:02:00,55.6,52.3,29.91,North,356,5.0,14.0,89,0.00,,,0.00,meteohub,2013-07-12 02:02:00,
2013-07-11 19:07:00,55.4,52.0,29.91,NNW,340,6.0,15.0,88,0.00,,,0.00,meteohub,2013-07-12 02:07:00,
2013-07-11 19:12:00,55.2,52.0,29.91,NNW,328,10.0,15.0,89,0.00,,,0.00,meteohub,2013-07-12 02:12:00,
2013-07-11 19:18:00,55.2,52.0,29.91,North,4,3.0,15.0,89,0.00,,,0.00,meteohub,2013-07-12 02:18:00,
2013-07-11 19:23:00,55.2,52.0,29.91,North,6,5.0,14.0,89,0.00,,,0.00,meteohub,2013-07-12 02:23:00,
2013-07-11 19:29:00,55.0,51.8,29.91,North,11,4.0,14.0,89,0.00,,,0.00,meteohub,2013-07-12 02:29:00,
2013-07-11 19:34:00,55.0,51.8,29.91,North,356,8.0,12.0,89,0.00,,,0.00,meteohub,2013-07-12 02:34:00,
2013-07-11 19:39:00,54.9,51.6,29.92,WNW,297,3.0,16.0,89,0.00,,,0.00,meteohub,2013-07-12 02:39:00,
2013-07-11 19:44:00,54.7,51.8,29.92,NNE,25,2.0,16.0,90,0.00,,,0.00,meteohub,2013-07-12 02:44:00,
2013-07-11 19:50:00,54.7,51.8,29.92,North,359,4.0,16.0,90,0.00,,,0.00,meteohub,2013-07-12 02:50:00,
2013-07-11 19:55:00,54.7,51.8,29.92,North,356,5.0,12.0,90,0.00,,,0.00,meteohub,2013-07-12 02:55:00,
2013-07-11 20:00:00,54.7,51.4,29.92,North,352,2.0,11.0,89,0.00,,,0.00,meteohub,2013-07-12 03:00:00,
2013-07-11 20:06:00,54.7,51.8,29.92,NNE,20,8.0,14.0,90,0.00,,,0.00,meteohub,2013-07-12 03:06:00,
2013-07-11 20:11:00,54.7,51.8,29.91,North,359,3.0,14.0,90,0.00,,,0.00,meteohub,2013-07-12 03:11:00,
2013-07-11 20:16:00,54.9,51.6,29.92,NE,43,6.0,9.0,89,0.00,,,0.00,meteohub,2013-07-12 03:16:00,
2013-07-11 20:21:00,54.7,51.8,29.92,ENE,58,1.0,17.0,90,0.00,,,0.00,meteohub,2013-07-12 03:21:00,
2013-07-11 20:26:00,54.9,52.0,29.92,NNW,330,5.0,17.0,90,0.00,,,0.00,meteohub,2013-07-12 03:26:00,
2013-07-11 20:31:00,54.9,51.6,29.92,NNE,29,1.0,17.0,89,0.00,,,0.00,meteohub,2013-07-12 03:31:00,
2013-07-11 20:37:00,54.9,51.6,29.92,NNW,328,3.0,10.0,89,0.00,,,0.00,meteohub,2013-07-12 03:37:00,
2013-07-11 20:42:00,54.9,52.0,29.92,NNW,346,1.0,10.0,90,0.00,,,0.00,meteohub,2013-07-12 03:42:00,
2013-07-11 20:47:00,54.9,52.0,29.92,NE,41,2.0,11.0,90,0.00,,,0.00,meteohub,2013-07-12 03:47:00,
2013-07-11 20:52:00,54.9,51.6,29.92,North,359,6.0,11.0,89,0.00,,,0.00,meteohub,2013-07-12 03:52:00,
2013-07-11 20:57:00,54.9,51.6,29.92,NNE,20,2.0,11.0,89,0.00,,,0.00,meteohub,2013-07-12 03:57:00,
2013-07-11 21:01:00,54.9,52.0,29.92,NNE,19,6.0,11.0,90,0.00,,,0.00,meteohub,2013-07-12 04:01:00,
2013-07-11 21:02:00,54.9,51.6,29.92,NNW,342,8.0,11.0,89,0.00,,,0.00,meteohub,2013-07-12 04:02:00,
2013-07-11 21:03:00,54.9,51.6,29.92,NNW,330,2.0,11.0,89,0.00,,,0.00,meteohub,2013-07-12 04:03:00,
2013-07-11 21:04:00,54.9,51.6,29.92,NNW,334,4.0,11.0,89,0.00,,,0.00,meteohub,2013-07-12 04:04:00,
2013-07-11 21:09:00,54.9,51.6,29.92,North,9,8.0,11.0,89,0.00,,,0.00,meteohub,2013-07-12 04:09:00,
2013-07-11 21:14:00,54.9,52.0,29.92,NE,53,1.0,11.0,90,0.00,,,0.00,meteohub,2013-07-12 04:14:00,
2013-07-11 21:19:00,54.9,51.6,29.92,NNW,327,1.0,11.0,89,0.00,,,0.00,meteohub,2013-07-12 04:19:00,
2013-07-11 21:24:00,54.9,52.0,29.93,NNE,18,1.0,11.0,90,0.00,,,0.00,meteohub,2013-07-12 04:24:00,
2013-07-11 21:29:00,54.9,51.6,29.93,East,94,2.0,10.0,89,0.00,,,0.00,meteohub,2013-07-12 04:29:00,
2013-07-11 21:34:00,54.9,51.6,29.93,North,356,2.0,9.0,89,0.00,,,0.00,meteohub,2013-07-12 04:34:00,
2013-07-11 21:40:00,55.0,51.8,29.94,NNW,338,6.0,12.0,89,0.00,,,0.00,meteohub,2013-07-12 04:40:00,
2013-07-11 21:45:00,54.9,51.6,29.94,ENE,62,0.0,12.0,89,0.00,,,0.00,meteohub,2013-07-12 04:45:00,
2013-07-11 21:50:00,54.9,51.6,29.94,North,352,4.0,17.0,89,0.00,,,0.00,meteohub,2013-07-12 04:50:00,
2013-07-11 21:55:00,54.9,51.6,29.94,NW,326,2.0,17.0,89,0.00,,,0.00,meteohub,2013-07-12 04:55:00,
2013-07-11 22:00:00,54.9,51.6,29.94,NNE,19,6.0,11.0,89,0.00,,,0.00,meteohub,2013-07-12 05:00:00,
2013-07-11 22:05:00,54.9,51.6,29.94,NE,40,3.0,11.0,89,0.00,,,0.00,meteohub,2013-07-12 05:05:00,
2013-07-11 22:10:00,55.0,51.8,29.94,NNW,344,3.0,9.0,89,0.00,,,0.00,meteohub,2013-07-12 05:10:00,
2013-07-11 22:15:00,55.0,51.8,29.94,North,5,3.0,11.0,89,0.00,,,0.00,meteohub,2013-07-12 05:15:00,
2013-07-11 22:20:00,55.0,51.8,29.94,SE,136,1.0,11.0,89,0.00,,,0.00,meteohub,2013-07-12 05:20:00,
2013-07-11 22:25:00,55.0,51.8,29.94,NW,316,2.0,12.0,89,0.00,,,0.00,meteohub,2013-07-12 05:25:00,
2013-07-11 22:31:00,54.9,51.6,29.94,NNE,13,2.0,12.0,89,0.00,,,0.00,meteohub,2013-07-12 05:31:00,
2013-07-11 22:36:00,54.9,51.6,29.94,North,11,0.0,12.0,89,0.00,,,0.00,meteohub,2013-07-12 05:36:00,
2013-07-11 22:41:00,55.0,51.8,29.94,NE,51,0.0,10.0,89,0.00,,,0.00,meteohub,2013-07-12 05:41:00,
2013-07-11 22:46:00,55.0,51.8,29.94,SSE,152,0.0,10.0,89,0.00,,,0.00,meteohub,2013-07-12 05:46:00,
2013-07-11 22:51:00,55.0,51.8,29.94,North,356,0.0,10.0,89,0.00,,,0.00,meteohub,2013-07-12 05:51:00,
2013-07-11 22:56:00,55.0,51.8,29.94,ENE,60,1.0,4.0,89,0.00,,,0.00,meteohub,2013-07-12 05:56:00,
2013-07-11 23:01:00,55.0,51.8,29.94,SSW,201,1.0,4.0,89,0.00,,,0.00,meteohub,2013-07-12 06:01:00,
2013-07-11 23:06:00,55.2,52.0,29.94,NNE,19,4.0,5.0,89,0.00,,,0.00,meteohub,2013-07-12 06:06:00,
2013-07-11 23:11:00,55.2,52.0,29.94,NNW,340,1.0,5.0,89,0.00,,,0.00,meteohub,2013-07-12 06:11:00,
2013-07-11 23:17:00,55.2,52.0,29.94,NNW,328,2.0,5.0,89,0.00,,,0.00,meteohub,2013-07-12 06:17:00,
2013-07-11 23:22:00,55.2,52.0,29.94,South,190,2.0,6.0,89,0.00,,,0.00,meteohub,2013-07-12 06:22:00,
2013-07-11 23:27:00,55.4,52.2,29.94,NE,47,1.0,6.0,89,0.00,,,0.00,meteohub,2013-07-12 06:27:00,
2013-07-11 23:32:00,55.6,52.3,29.94,WNW,286,0.0,6.0,89,0.00,,,0.00,meteohub,2013-07-12 06:32:00,
2013-07-11 23:37:00,55.6,52.2,29.94,NNE,31,7.0,7.0,88,0.00,,,0.00,meteohub,2013-07-12 06:37:00,
2013-07-11 23:42:00,55.4,52.0,29.95,NNW,338,1.0,7.0,88,0.00,,,0.00,meteohub,2013-07-12 06:42:00,
2013-07-11 23:47:00,55.6,52.2,29.94,NE,34,1.0,7.0,88,0.00,,,0.00,meteohub,2013-07-12 06:47:00,
2013-07-11 23:52:00,55.6,52.2,29.94,NE,47,0.0,7.0,88,0.00,,,0.00,meteohub,2013-07-12 06:52:00,
2013-07-11 23:57:00,55.6,52.2,29.94,West,267,0.0,6.0,88,0.00,,,0.00,meteohub,2013-07-12 06:57:00,